Time;durP1;ratioP1;P1;durP2;ratioP2;P2;SDS_P1;SDS_P2;PMS_P1;PMS_P2;Temp;Humidity;BMP_temperature;BMP_pressure;BME280_temperature;BME280_humidity;BME280_pressure;Samples;Min_cycle;Max_cycle;Signal;HPM_P1;HPM_P2
2023/09/01 00:02:23;;;;;;;11.60;6.35;;;;;;;12.48;100.00;101185.41;6276462;22;20000;-82
2023/09/01 00:04:48;;;;;;;8.68;6.38;;;;;;;12.31;100.00;101150.28;6276277;22;20405;-82
2023/09/01 00:07:13;;;;;;;10.98;6.43;;;;;;;12.35;100.00;101141.34;6248495;22;20014;-80
2023/09/01 00:09:38;;;;;;;12.73;6.78;;;;;;;12.45;100.00;101144.19;6276155;22;19999;-79
2023/09/01 00:12:04;;;;;;;9.20;6.40;;;;;;;12.40;100.00;101154.03;6275941;22;20003;-79
2023/09/01 00:14:30;;;;;;;10.85;6.43;;;;;;;12.36;100.00;101162.91;6276021;22;20010;-79
2023/09/01 00:16:55;;;;;;;12.23;6.88;;;;;;;12.10;100.00;101141.31;6275960;22;20468;-81
2023/09/01 00:19:22;;;;;;;10.30;6.85;;;;;;;12.19;100.00;101171.78;6275858;22;20508;-79
2023/09/01 00:21:53;;;;;;;12.25;7.03;;;;;;;11.97;100.00;101143.00;6273979;22;20095;-79
2023/09/01 00:24:18;;;;;;;12.10;7.97;;;;;;;12.07;100.00;101170.78;6274319;22;20299;-79
2023/09/01 00:26:43;;;;;;;13.38;7.60;;;;;;;11.85;100.00;101134.25;6276056;22;20053;-79
2023/09/01 00:29:08;;;;;;;14.10;7.93;;;;;;;11.98;100.00;101167.94;6275779;22;20007;-79
2023/09/01 00:31:34;;;;;;;11.15;7.85;;;;;;;11.92;100.00;101166.59;6276007;22;20003;-79
2023/09/01 00:33:59;;;;;;;11.98;8.57;;;;;;;11.87;100.00;101166.03;6275975;22;20004;-80
2023/09/01 00:36:24;;;;;;;13.63;8.27;;;;;;;11.67;100.00;101136.22;6275820;22;19996;-79
2023/09/01 00:38:50;;;;;;;11.55;8.73;;;;;;;11.76;100.00;101137.41;6275780;22;20003;-79
2023/09/01 00:41:15;;;;;;;13.85;9.05;;;;;;;11.87;100.00;101141.91;6275938;22;20012;-79
2023/09/01 00:43:40;;;;;;;14.68;8.57;;;;;;;11.92;100.00;101148.47;6274219;22;20307;-79
2023/09/01 00:46:06;;;;;;;12.23;8.45;;;;;;;11.85;100.00;101126.50;6276131;22;20012;-79
2023/09/01 00:48:32;;;;;;;14.00;8.23;;;;;;;12.04;100.00;101142.50;6275554;22;20070;-79
2023/09/01 00:50:57;;;;;;;13.57;8.85;;;;;;;12.04;100.00;101132.16;6275818;22;20004;-80
2023/09/01 00:53:23;;;;;;;15.35;8.45;;;;;;;12.13;100.00;101130.75;6275952;22;20004;-79
2023/09/01 00:55:50;;;;;;;14.68;8.82;;;;;;;12.10;100.00;101122.34;6275819;22;20000;-79
2023/09/01 00:58:15;;;;;;;12.73;8.23;;;;;;;12.14;100.00;101124.63;6275898;22;20014;-80
2023/09/01 01:00:42;;;;;;;14.63;8.45;;;;;;;12.30;100.00;101148.63;6275888;22;20410;-80
2023/09/01 01:03:10;;;;;;;13.45;8.23;;;;;;;12.29;100.00;101156.47;6275477;22;20318;-80
2023/09/01 01:05:43;;;;;;;12.95;8.65;;;;;;;12.32;100.00;101149.34;6275659;22;19999;-80
2023/09/01 01:08:18;;;;;;;15.38;7.85;;;;;;;12.30;100.00;101150.38;6276087;22;20002;-80
2023/09/01 01:10:57;;;;;;;13.73;7.47;;;;;;;12.19;100.00;101137.25;6275734;22;20012;-80
2023/09/01 01:13:25;;;;;;;12.98;8.35;;;;;;;12.18;100.00;101136.44;6276000;22;20482;-80
2023/09/01 01:15:54;;;;;;;12.90;7.53;;;;;;;12.31;100.00;101159.81;6274422;22;20004;-80
2023/09/01 01:18:23;;;;;;;12.90;7.95;;;;;;;12.31;100.00;101165.81;6275510;22;20004;-79
2023/09/01 01:20:53;;;;;;;10.60;7.28;;;;;;;12.14;100.00;101137.59;6275727;22;20018;-80
2023/09/01 01:23:20;;;;;;;13.95;7.72;;;;;;;12.29;100.00;101157.31;6275670;22;20421;-80
2023/09/01 01:25:50;;;;;;;13.15;8.57;;;;;;;12.18;100.00;101144.22;6275796;22;20398;-80
2023/09/01 01:28:16;;;;;;;15.07;7.68;;;;;;;12.25;100.00;101155.84;6276016;22;20003;-80
2023/09/01 01:30:42;;;;;;;14.05;8.25;;;;;;;12.23;100.00;101152.53;6275714;22;20006;-80
2023/09/01 01:33:30;;;;;;;11.40;7.40;;;;;;;12.23;100.00;101152.53;6276182;22;20003;-80
2023/09/01 01:35:58;;;;;;;13.02;8.10;;;;;;;12.20;100.00;101147.56;6263187;22;19999;-80
2023/09/01 01:38:27;;;;;;;13.15;7.25;;;;;;;12.10;100.00;101138.72;6278040;22;20036;-80
2023/09/01 01:40:59;;;;;;;11.98;7.53;;;;;;;12.18;100.00;101151.97;6277749;22;20031;-80
2023/09/01 01:43:27;;;;;;;13.60;7.68;;;;;;;12.21;100.00;101162.16;6276138;22;20319;-80
2023/09/01 01:45:54;;;;;;;14.05;7.45;;;;;;;12.18;100.00;101154.56;6278193;22;20007;-80
2023/09/01 01:48:19;;;;;;;13.90;7.78;;;;;;;12.20;100.00;101149.31;6277705;22;20054;-80
2023/09/01 01:50:45;;;;;;;12.02;7.20;;;;;;;12.18;100.00;101140.78;6277750;22;20398;-80
2023/09/01 01:53:12;;;;;;;13.95;7.65;;;;;;;12.20;100.00;101134.59;6277929;22;20023;-80
2023/09/01 01:55:38;;;;;;;16.02;8.02;;;;;;;11.96;100.00;101094.75;6277456;22;20444;-80
2023/09/01 01:58:05;;;;;;;14.93;7.70;;;;;;;12.30;100.00;101148.63;6277800;22;20004;-80
2023/09/01 02:00:31;;;;;;;13.13;7.95;;;;;;;12.41;100.00;101157.44;6277429;22;20452;-80
2023/09/01 02:02:56;;;;;;;13.90;7.93;;;;;;;12.45;100.00;101153.72;6277270;22;20078;-80
2023/09/01 02:05:22;;;;;;;13.73;7.60;;;;;;;12.47;100.00;101155.25;6277187;22;20019;-80
2023/09/01 02:07:47;;;;;;;12.80;7.57;;;;;;;12.47;100.00;101137.13;6277976;22;20007;-80
2023/09/01 02:10:12;;;;;;;15.32;7.72;;;;;;;12.45;100.00;101136.41;6277597;22;20086;-80
2023/09/01 02:12:38;;;;;;;14.02;7.18;;;;;;;12.55;100.00;101144.41;6277281;22;20036;-80
2023/09/01 02:15:07;;;;;;;10.52;7.57;;;;;;;12.50;100.00;101133.53;6277298;22;20004;-81
2023/09/01 02:17:35;;;;;;;16.98;7.80;;;;;;;12.59;100.00;101145.88;6277220;22;20034;-80
2023/09/01 02:20:00;;;;;;;12.85;7.43;;;;;;;12.62;100.00;101137.88;6277401;22;20003;-80
2023/09/01 02:22:25;;;;;;;11.00;7.63;;;;;;;12.64;100.00;101136.84;6277466;22;20046;-80
2023/09/01 02:24:51;;;;;;;16.27;7.50;;;;;;;12.49;100.00;101116.34;6277292;22;20031;-80
2023/09/01 02:27:16;;;;;;;12.50;7.93;;;;;;;12.71;100.00;101139.03;6277277;22;20448;-80
2023/09/01 02:29:42;;;;;;;13.05;7.50;;;;;;;12.72;100.00;101140.69;6276912;22;20396;-81
2023/09/01 02:32:07;;;;;;;13.70;7.65;;;;;;;12.66;100.00;101134.16;6277350;22;20444;-80
2023/09/01 02:34:32;;;;;;;11.55;7.57;;;;;;;12.70;100.00;101137.38;6277018;22;20414;-81
2023/09/01 02:36:58;;;;;;;11.88;7.82;;;;;;;12.72;100.00;101144.13;6277050;22;20413;-80
2023/09/01 02:39:24;;;;;;;13.52;7.63;;;;;;;12.72;100.00;101144.13;6277275;22;20000;-80
2023/09/01 02:41:49;;;;;;;12.15;7.65;;;;;;;12.75;100.00;101137.88;6276829;22;20069;-80
2023/09/01 02:44:14;;;;;;;12.88;8.30;;;;;;;12.74;100.00;101142.25;6276684;22;20029;-80
2023/09/01 02:46:40;;;;;;;13.65;8.07;;;;;;;12.68;100.00;101124.50;6276845;22;20039;-80
2023/09/01 02:49:05;;;;;;;11.32;7.47;;;;;;;12.75;100.00;101128.34;6276988;22;20006;-80
2023/09/01 02:51:30;;;;;;;13.40;7.45;;;;;;;12.74;100.00;101128.47;6276958;22;20007;-80
2023/09/01 02:53:56;;;;;;;12.02;7.88;;;;;;;12.70;100.00;101125.25;6277416;22;20003;-80
2023/09/01 02:56:21;;;;;;;13.93;8.10;;;;;;;12.58;100.00;101105.31;6277016;22;20302;-80
2023/09/01 02:58:46;;;;;;;13.40;7.80;;;;;;;12.34;100.00;101066.38;6277002;22;20077;-80
2023/09/01 03:01:12;;;;;;;13.73;8.27;;;;;;;12.43;100.00;101081.28;6276831;22;20071;-80
2023/09/01 03:03:40;;;;;;;13.30;8.18;;;;;;;12.59;100.00;101109.59;6276706;22;20007;-80
2023/09/01 03:06:08;;;;;;;13.85;8.90;;;;;;;12.72;100.00;101131.16;6275046;22;20083;-80
2023/09/01 03:08:34;;;;;;;14.40;8.52;;;;;;;12.43;100.00;101075.28;6277065;22;20004;-81
2023/09/01 03:10:59;;;;;;;14.13;8.77;;;;;;;12.54;100.00;101090.94;6276965;22;20057;-80
2023/09/01 03:13:24;;;;;;;15.38;8.70;;;;;;;12.76;100.00;101121.41;6277127;22;20019;-80
2023/09/01 03:15:53;;;;;;;13.45;8.38;;;;;;;12.79;100.00;101119.47;6276858;22;20328;-80
2023/09/01 03:18:18;;;;;;;12.20;8.40;;;;;;;12.73;100.00;101109.50;6277023;22;20053;-80
2023/09/01 03:20:43;;;;;;;14.13;8.73;;;;;;;12.83;100.00;101126.09;6276906;22;20423;-80
2023/09/01 03:23:09;;;;;;;15.13;9.02;;;;;;;12.65;100.00;101096.22;6276906;22;20004;-80
2023/09/01 03:25:34;;;;;;;13.20;8.10;;;;;;;12.87;100.00;101130.13;6276320;22;20053;-80
2023/09/01 03:27:59;;;;;;;13.63;8.65;;;;;;;12.87;100.00;101122.34;6277007;22;20026;-80
2023/09/01 03:30:25;;;;;;;15.18;8.65;;;;;;;12.88;100.00;101116.25;6276672;22;20055;-80
2023/09/01 03:32:52;;;;;;;13.02;8.52;;;;;;;12.89;100.00;101119.66;6276649;22;20000;-80
2023/09/01 03:35:17;;;;;;;13.38;8.85;;;;;;;12.71;100.00;101100.19;6276568;22;20018;-80
2023/09/01 03:37:43;;;;;;;13.35;9.63;;;;;;;12.87;100.00;101130.13;6276657;22;20000;-80
2023/09/01 03:40:09;;;;;;;14.60;9.55;;;;;;;12.92;100.00;101125.47;6276428;22;20012;-80
2023/09/01 03:42:39;;;;;;;14.70;10.13;;;;;;;12.59;100.00;101060.38;6276336;22;20073;-80
2023/09/01 03:45:05;;;;;;;15.90;9.50;;;;;;;12.89;100.00;101102.34;6275117;22;20008;-80
2023/09/01 03:47:31;;;;;;;14.15;9.77;;;;;;;12.88;100.00;101098.09;6276469;22;20376;-80
2023/09/01 03:49:56;;;;;;;15.55;10.90;;;;;;;12.82;100.00;101085.56;6276919;22;20008;-80
2023/09/01 03:52:21;;;;;;;16.20;10.45;;;;;;;12.85;100.00;101093.09;6276550;22;20315;-80
2023/09/01 03:54:47;;;;;;;15.70;10.75;;;;;;;12.99;100.00;101114.69;6276858;22;20012;-80
2023/09/01 03:57:12;;;;;;;18.60;10.40;;;;;;;12.95;100.00;101108.03;6276398;22;20000;-80
2023/09/01 03:59:37;;;;;;;13.68;9.88;;;;;;;13.02;100.00;101115.28;6276262;22;20011;-80
2023/09/01 04:02:04;;;;;;;15.15;10.02;;;;;;;13.04;100.00;101105.63;6276935;22;20011;-80
2023/09/01 04:04:29;;;;;;;15.13;9.77;;;;;;;12.79;100.00;101069.41;6276236;22;20004;-80
2023/09/01 04:06:55;;;;;;;15.18;9.40;;;;;;;12.94;100.00;101091.66;6276565;22;20010;-80
2023/09/01 04:09:20;;;;;;;13.02;9.32;;;;;;;13.05;100.00;101102.13;6276262;22;20004;-80
2023/09/01 04:11:45;;;;;;;14.07;9.45;;;;;;;13.06;100.00;101088.22;6275919;22;20018;-80
2023/09/01 04:14:11;;;;;;;11.48;8.35;;;;;;;13.04;100.00;101091.84;6276265;22;20010;-80
2023/09/01 04:16:38;;;;;;;13.75;9.45;;;;;;;13.00;100.00;101087.81;6276605;22;20081;-81
2023/09/01 04:19:04;;;;;;;14.52;9.13;;;;;;;12.99;100.00;101093.94;6276506;22;20007;-80
2023/09/01 04:21:29;;;;;;;12.82;9.10;;;;;;;12.97;100.00;101090.59;6276210;22;20004;-81
2023/09/01 04:23:55;;;;;;;17.02;10.05;;;;;;;12.90;100.00;101083.28;6276119;22;20003;-81
2023/09/01 04:26:20;;;;;;;17.80;9.77;;;;;;;12.99;100.00;101099.97;6276045;22;20000;-81
2023/09/01 04:28:45;;;;;;;13.38;9.15;;;;;;;12.92;100.00;101086.56;6276116;22;19995;-82
2023/09/01 04:31:24;;;;;;;12.25;9.23;;;;;;;13.02;100.00;101091.97;6276020;22;20078;-82
2023/09/01 04:33:50;;;;;;;15.07;10.52;;;;;;;13.06;100.00;101093.41;6274355;22;20004;-81
2023/09/01 04:36:15;;;;;;;14.90;11.10;;;;;;;13.10;100.00;101096.63;6276103;22;20008;-81
2023/09/01 04:38:41;;;;;;;13.57;10.70;;;;;;;13.06;100.00;101092.56;6275836;22;20090;-82
2023/09/01 04:41:06;;;;;;;18.85;11.23;;;;;;;13.13;100.00;101093.81;6276196;22;20007;-81
2023/09/01 04:43:31;;;;;;;18.48;11.82;;;;;;;13.12;100.00;101089.56;6276201;22;20049;-81
2023/09/01 04:45:57;;;;;;;17.02;11.95;;;;;;;13.17;100.00;101103.88;6276318;22;20003;-81
2023/09/01 04:48:24;;;;;;;15.18;10.40;;;;;;;13.06;100.00;101082.19;6274347;22;20008;-81
2023/09/01 04:50:49;;;;;;;17.00;10.73;;;;;;;13.21;100.00;101107.09;6275995;22;20011;-81
2023/09/01 04:53:15;;;;;;;16.30;10.25;;;;;;;13.11;100.00;101085.31;6276193;22;20410;-82
2023/09/01 04:55:42;;;;;;;16.48;10.48;;;;;;;13.10;100.00;101087.09;6275792;22;20083;-81
2023/09/01 04:58:07;;;;;;;17.55;9.82;;;;;;;13.26;100.00;101109.38;6275759;22;20004;-81
2023/09/01 05:00:32;;;;;;;13.00;9.77;;;;;;;13.27;100.00;101111.03;6276071;22;20325;-81
2023/09/01 05:02:58;;;;;;;15.75;9.10;;;;;;;13.28;100.00;101103.16;6276047;22;20038;-80
2023/09/01 05:05:24;;;;;;;14.02;9.05;;;;;;;13.29;100.00;101104.00;6275345;22;20000;-80
2023/09/01 05:07:50;;;;;;;13.00;9.13;;;;;;;13.30;100.00;101097.88;6276729;22;20007;-80
2023/09/01 05:10:15;;;;;;;14.02;9.52;;;;;;;13.18;100.00;101083.97;6276011;22;20003;-79
2023/09/01 05:12:41;;;;;;;13.77;9.50;;;;;;;13.35;100.00;101103.53;6277771;22;20011;-80
2023/09/01 05:15:07;;;;;;;14.68;9.07;;;;;;;13.38;100.00;101105.94;6277985;22;20337;-80
2023/09/01 05:17:32;;;;;;;14.70;9.20;;;;;;;13.41;100.00;101110.91;6277727;22;20004;-80
2023/09/01 05:19:57;;;;;;;14.45;8.55;;;;;;;13.45;100.00;101110.56;6277524;22;20007;-80
2023/09/01 05:22:25;;;;;;;13.48;8.88;;;;;;;13.49;100.00;101111.19;6277634;22;20014;-80
2023/09/01 05:24:53;;;;;;;13.57;8.48;;;;;;;13.35;100.00;101075.00;6277585;22;20010;-79
2023/09/01 05:27:19;;;;;;;14.65;9.18;;;;;;;13.57;100.00;101103.72;6278063;22;20000;-80
2023/09/01 05:29:46;;;;;;;13.05;9.13;;;;;;;13.44;100.00;101077.78;6277979;22;19999;-80
2023/09/01 05:32:11;;;;;;;14.15;8.80;;;;;;;13.50;100.00;101076.53;6277489;22;20003;-78
2023/09/01 05:34:37;;;;;;;13.60;9.13;;;;;;;13.71;100.00;101107.91;6277451;22;20015;-79
2023/09/01 05:37:02;;;;;;;15.77;9.30;;;;;;;13.73;100.00;101106.84;6277514;22;20031;-79
2023/09/01 05:39:28;;;;;;;14.60;9.23;;;;;;;13.74;100.00;101103.31;6277357;22;20003;-79
2023/09/01 05:41:54;;;;;;;14.13;8.73;;;;;;;13.61;100.00;101073.16;6277163;22;20016;-80
2023/09/01 05:44:20;;;;;;;15.00;8.80;;;;;;;13.68;100.00;101084.78;6277593;22;20008;-80
2023/09/01 05:46:45;;;;;;;15.48;9.65;;;;;;;13.87;100.00;101110.22;6277582;22;20007;-80
2023/09/01 05:49:10;;;;;;;16.55;9.65;;;;;;;13.69;100.00;101073.44;6277498;22;20000;-80
2023/09/01 05:51:36;;;;;;;14.77;9.05;;;;;;;13.79;100.00;101092.59;6277469;22;20015;-80
2023/09/01 05:54:02;;;;;;;13.93;9.77;;;;;;;13.95;100.00;101106.13;6277665;22;20042;-80
2023/09/01 05:56:27;;;;;;;13.75;9.50;;;;;;;14.04;100.00;101109.81;6277429;22;20023;-80
2023/09/01 05:58:54;;;;;;;12.70;9.90;;;;;;;14.10;100.00;101108.56;6275963;22;20011;-80
2023/09/01 06:01:19;;;;;;;13.98;9.70;;;;;;;13.49;100.00;101000.47;6273887;22;20015;-78
2023/09/01 06:03:50;;;;;;;12.07;9.27;;;;;;;14.20;100.00;101104.34;6277520;22;20007;-79
2023/09/01 06:06:48;;;;;;;14.20;9.57;;;;;;;13.47;100.00;100973.81;6276694;22;20019;-80
2023/09/01 06:09:13;;;;;;;14.18;9.50;;;;;;;13.67;100.00;100987.94;6183305;23;20056;-81
2023/09/01 06:11:45;;;;;;;14.10;9.02;;;;;;;13.76;100.00;100983.81;6183496;23;20432;-83
2023/09/01 06:14:13;;;;;;;;;;;;;;;14.64;100.00;101103.63;6183743;23;20040;-80
2023/09/01 06:16:38;;;;;;;14.55;9.23;;;;;;;14.69;100.00;101111.09;6183377;23;19912;-80
2023/09/01 06:19:03;;;;;;;15.10;9.13;;;;;;;14.74;100.00;101112.41;6183299;23;20019;-81
2023/09/01 06:21:30;;;;;;;14.32;9.40;;;;;;;14.62;100.00;101095.13;6183769;23;20040;-81
2023/09/01 06:23:56;;;;;;;13.23;9.00;;;;;;;14.72;100.00;101103.06;6183645;23;20009;-81
2023/09/01 06:26:21;;;;;;;11.68;8.98;;;;;;;14.77;100.00;101122.59;6183655;23;20040;-81
2023/09/01 06:28:47;;;;;;;15.23;8.60;;;;;;;14.67;100.00;101107.78;6183613;23;20008;-81
2023/09/01 06:31:14;;;;;;;12.35;9.43;;;;;;;14.69;100.00;101111.94;6183321;23;20421;-83
2023/09/01 06:33:42;;;;;;;14.82;8.93;;;;;;;14.38;100.00;101056.22;6157662;23;20096;-81
2023/09/01 06:36:27;;;;;;;12.25;8.80;;;;;;;13.82;100.00;100948.78;6183181;23;20016;-82
2023/09/01 06:39:02;;;;;;;14.43;9.43;;;;;;;14.46;100.00;101051.31;6183277;23;20389;-82
2023/09/01 06:41:27;;;;;;;12.77;9.07;;;;;;;14.76;100.00;101104.50;6183738;23;20016;-81
2023/09/01 06:44:05;;;;;;;13.52;9.25;;;;;;;14.18;100.00;100999.75;6183243;23;20006;-81
2023/09/01 06:46:45;;;;;;;13.38;9.68;;;;;;;13.78;100.00;100937.81;6229830;22;20003;-80
2023/09/01 06:49:22;;;;;;;14.40;9.52;;;;;;;13.87;100.00;100959.66;6277392;22;20008;-80
2023/09/01 06:51:47;;;;;;;12.18;10.40;;;;;;;14.78;100.00;101123.41;6250011;22;20003;-81
2023/09/01 06:54:25;;;;;;;13.48;9.73;;;;;;;14.84;100.00;101138.53;6276688;22;20003;-80
2023/09/01 06:56:51;;;;;;;13.77;9.52;;;;;;;14.84;100.00;101130.72;6276898;22;20007;-80
2023/09/01 06:59:16;;;;;;;12.48;10.13;;;;;;;14.49;100.00;101063.22;6277181;22;20004;-80
2023/09/01 07:01:42;;;;;;;14.23;10.38;;;;;;;14.87;100.00;101110.53;6249579;22;20090;-80
2023/09/01 07:04:07;;;;;;;13.57;10.75;;;;;;;15.06;100.00;101122.13;6277351;22;20036;-80
2023/09/01 07:06:33;;;;;;;13.32;9.93;;;;;;;15.01;100.00;101095.63;6276773;22;20007;-80
2023/09/01 07:08:58;;;;;;;18.83;11.57;;;;;;;15.25;100.00;101121.53;6276703;22;20011;-81
2023/09/01 07:11:24;;;;;;;14.85;11.10;;;;;;;15.32;100.00;101109.69;6276637;22;20031;-83
2023/09/01 07:13:49;;;;;;;15.23;10.25;;;;;;;15.29;100.00;101115.13;6250255;22;20004;-79
2023/09/01 07:16:15;;;;;;;15.50;10.70;;;;;;;15.04;100.00;101078.00;6276906;22;20007;-81
2023/09/01 07:18:41;;;;;;;17.02;10.65;;;;;;;15.29;100.00;101109.94;6277081;22;20011;-80
2023/09/01 07:21:06;;;;;;;13.80;10.52;;;;;;;15.25;100.00;101111.97;6277070;22;20062;-80
2023/09/01 07:23:32;;;;;;;13.38;10.63;;;;;;;15.26;100.00;101120.59;6277248;22;20007;-81
2023/09/01 07:25:59;;;;;;;16.05;11.23;;;;;;;15.24;100.00;101114.66;6277053;22;20042;-81
2023/09/01 07:28:24;;;;;;;14.48;11.20;;;;;;;15.31;100.00;101119.25;6276623;22;20030;-81
2023/09/01 07:30:50;;;;;;;15.23;11.52;;;;;;;15.35;100.00;101112.06;6276455;22;20007;-83
2023/09/01 07:33:16;;;;;;;16.90;10.90;;;;;;;15.21;100.00;101076.69;6277037;22;20417;-83
2023/09/01 07:35:48;;;;;;;13.63;11.23;;;;;;;15.44;100.00;101103.53;6276905;22;20007;-80
2023/09/01 07:38:15;;;;;;;16.13;11.70;;;;;;;15.46;100.00;101101.63;6276864;22;20333;-83
2023/09/01 07:40:41;;;;;;;17.85;12.10;;;;;;;15.28;100.00;101072.69;6276548;22;20007;-82
2023/09/01 07:43:06;;;;;;;13.85;11.95;;;;;;;15.21;100.00;101063.69;6276678;22;20003;-78
2023/09/01 07:45:32;;;;;;;13.82;11.27;;;;;;;15.45;100.00;101089.56;6276726;22;20471;-79
2023/09/01 07:47:57;;;;;;;14.50;11.27;;;;;;;15.56;100.00;101102.56;6276576;22;20049;-80
2023/09/01 07:50:23;;;;;;;13.13;11.10;;;;;;;15.26;100.00;101058.16;6276359;22;20061;-79
2023/09/01 07:52:50;;;;;;;14.25;10.45;;;;;;;15.53;100.00;101113.19;6249152;22;20004;-83
2023/09/01 07:55:15;;;;;;;13.68;10.77;;;;;;;15.51;100.00;101115.09;6276344;22;20003;-82
2023/09/01 07:57:41;;;;;;;14.63;11.00;;;;;;;15.56;100.00;101115.56;6276170;22;20004;-78
2023/09/01 08:00:17;;;;;;;13.32;10.02;;;;;;;15.60;100.00;101111.78;6276361;22;20410;-80
2023/09/01 08:02:43;;;;;;;14.32;10.85;;;;;;;15.09;100.00;101030.84;6249096;22;20425;-80
2023/09/01 08:05:08;;;;;;;15.07;10.18;;;;;;;15.27;100.00;101039.81;6276320;22;20007;-82
2023/09/01 08:07:34;;;;;;;14.95;10.88;;;;;;;14.97;100.00;100990.22;6275791;22;20086;-79
2023/09/01 08:10:10;;;;;;;13.18;10.63;;;;;;;15.07;100.00;101004.13;6276031;22;20413;-81
2023/09/01 08:12:35;;;;;;;14.70;10.23;;;;;;;15.65;100.00;101109.66;6276135;22;20011;-77
2023/09/01 08:15:10;;;;;;;15.27;11.00;;;;;;;15.28;100.00;101051.03;6276173;22;20008;-80
2023/09/01 08:17:35;;;;;;;15.40;11.15;;;;;;;15.61;100.00;101104.81;6276171;22;20126;-80
2023/09/01 08:20:13;;;;;;;15.60;10.85;;;;;;;15.84;100.00;101145.47;6276249;22;20035;-79
2023/09/01 08:22:41;;;;;;;13.55;11.05;;;;;;;15.84;100.00;101155.91;6275966;22;20003;-79
2023/09/01 08:25:07;;;;;;;12.52;10.30;;;;;;;15.84;100.00;101150.69;6275916;22;20449;-79
2023/09/01 08:27:36;;;;;;;15.88;10.60;;;;;;;15.61;100.00;101128.25;6275916;22;20000;-80
2023/09/01 08:30:16;;;;;;;13.88;10.60;;;;;;;15.63;100.00;101121.13;6276093;22;20015;-79
2023/09/01 08:35:47;;;;;;;13.93;10.38;;;;;;;15.93;100.00;101147.34;6274645;22;20024;-81
2023/09/01 08:38:21;;;;;;;14.18;10.77;;;;;;;15.85;100.00;101135.88;6248419;22;20021;-80
2023/09/01 08:40:48;;;;;;;12.68;10.85;;;;;;;15.89;100.00;101147.69;6275947;22;20014;-84
2023/09/01 08:43:21;;;;;;;11.68;10.40;;;;;;;15.81;100.00;101143.09;6275697;22;19999;-82
2023/09/01 08:45:55;;;;;;;13.27;10.75;;;;;;;15.43;100.00;101073.22;6275672;22;20000;-78
2023/09/01 08:48:21;;;;;;;13.85;9.90;;;;;;;15.61;100.00;101113.44;6276382;22;20003;-80
2023/09/01 08:50:49;;;;;;;12.07;10.82;;;;;;;15.89;100.00;101148.53;6276012;22;20007;-80
2023/09/01 08:53:14;;;;;;;12.23;10.68;;;;;;;16.00;100.00;101168.50;6276036;22;20465;-80
2023/09/01 08:55:42;;;;;;;12.85;10.52;;;;;;;15.99;100.00;101159.03;6248396;22;20034;-80
2023/09/01 08:58:21;;;;;;;13.32;10.55;;;;;;;15.34;100.00;101059.19;6248827;22;20405;-79
2023/09/01 09:00:47;;;;;;;12.38;10.65;;;;;;;15.92;100.00;101140.47;6276306;22;20008;-77
2023/09/01 09:03:20;;;;;;;12.43;10.93;;;;;;;15.88;100.00;101146.06;6276312;22;20468;-78
2023/09/01 09:05:46;;;;;;;14.00;10.85;;;;;;;15.99;100.00;101174.66;6275748;22;20073;-78
2023/09/01 09:08:12;;;;;;;12.43;11.00;;;;;;;15.93;100.00;101162.97;6276152;22;19999;-79
2023/09/01 09:10:39;;;;;;;13.13;11.20;;;;;;;15.73;100.00;101143.75;6275932;22;20003;-79
2023/09/01 09:13:22;;;;;;;14.10;11.25;;;;;;;15.74;100.00;101152.38;6276158;22;20370;-79
2023/09/01 09:16:12;;;;;;;12.88;11.45;;;;;;;15.77;100.00;101155.56;6275333;22;20137;-79
2023/09/01 09:18:40;;;;;;;14.68;12.43;;;;;;;15.60;100.00;101127.41;6274529;22;20433;-78
2023/09/01 09:21:25;;;;;;;14.30;11.88;;;;;;;15.63;100.00;101129.78;6275675;22;20053;-78
2023/09/01 09:23:52;;;;;;;13.40;12.00;;;;;;;15.66;100.00;101137.34;6276198;22;20057;-78
2023/09/01 09:26:26;;;;;;;13.43;12.02;;;;;;;15.71;100.00;101153.41;6248418;22;20007;-77
2023/09/01 09:29:17;;;;;;;14.75;12.38;;;;;;;15.86;100.00;101187.03;6248380;22;20440;-77
2023/09/01 09:31:44;;;;;;;13.05;11.75;;;;;;;15.04;100.00;101053.78;6275677;22;20012;-77
2023/09/01 09:34:27;;;;;;;13.48;11.90;;;;;;;15.42;100.00;101113.22;6267286;22;20069;-78
2023/09/01 09:36:59;;;;;;;14.27;12.32;;;;;;;14.77;100.00;101013.38;6275080;22;20019;-78
2023/09/01 09:39:46;;;;;;;13.68;12.30;;;;;;;15.69;100.00;101157.09;6275332;22;20445;-78
2023/09/01 09:42:12;;;;;;;15.25;13.70;;;;;;;15.28;100.00;101090.06;6275864;22;20026;-78
2023/09/01 09:44:37;;;;;;;15.25;12.82;;;;;;;15.90;100.00;101183.22;6275946;22;20417;-79
2023/09/01 09:47:19;;;;;;;15.10;13.48;;;;;;;15.02;100.00;101029.66;6275946;22;20004;-78
2023/09/01 09:49:45;;;;;;;14.77;13.20;;;;;;;15.34;100.00;101085.22;6275886;22;20006;-78
2023/09/01 09:52:13;;;;;;;15.43;13.38;;;;;;;15.78;100.00;101135.53;6248926;22;20008;-80
2023/09/01 09:55:01;;;;;;;15.93;13.20;;;;;;;15.67;100.00;101123.38;6276474;22;19999;-77
2023/09/01 09:57:42;;;;;;;14.75;13.25;;;;;;;16.15;100.00;101193.34;6277724;22;20372;-78
2023/09/01 10:00:10;;;;;;;14.60;12.98;;;;;;;15.25;100.00;101046.91;6277336;22;20311;-78
2023/09/01 10:03:00;;;;;;;14.48;12.98;;;;;;;16.20;100.00;101185.97;6251211;22;20006;-78
2023/09/01 10:05:30;;;;;;;13.95;12.45;;;;;;;15.91;100.00;101143.19;6277434;22;20000;-80
2023/09/01 10:07:58;;;;;;;15.13;13.57;;;;;;;16.03;100.00;101156.06;6277325;22;20003;-79
2023/09/01 10:10:24;;;;;;;14.90;13.10;;;;;;;16.12;100.00;101159.69;6277902;22;20116;-79
2023/09/01 10:12:52;;;;;;;13.60;12.10;;;;;;;16.13;100.00;101160.53;6277393;22;20409;-80
2023/09/01 10:15:37;;;;;;;15.35;12.75;;;;;;;15.90;100.00;101118.09;6277485;22;20000;-79
2023/09/01 10:18:09;;;;;;;14.93;12.93;;;;;;;15.47;100.00;101041.66;6276607;22;20374;-81
2023/09/01 10:20:43;;;;;;;12.95;11.65;;;;;;;15.88;100.00;101102.59;6275955;22;20022;-81
2023/09/01 10:23:14;;;;;;;12.23;10.77;;;;;;;16.16;100.00;101119.44;6277047;22;20000;-81
2023/09/01 10:26:02;;;;;;;;;;;;;;;16.62;100.00;101176.44;6278066;22;20018;-79
2023/09/01 10:28:27;;;;;;;12.65;11.35;;;;;;;16.62;100.00;101176.44;6276289;22;19908;-79
2023/09/01 10:31:36;;;;;;;12.13;10.88;;;;;;;16.64;100.00;101177.13;6277399;22;20004;-80
2023/09/01 10:34:27;;;;;;;11.75;10.27;;;;;;;16.15;100.00;101075.25;6277678;22;20030;-79
2023/09/01 10:37:30;;;;;;;12.30;10.63;;;;;;;16.22;100.00;101068.56;6277343;22;20298;-80
2023/09/01 10:40:13;;;;;;;10.82;9.23;;;;;;;16.61;100.00;101146.06;6277557;22;20057;-80
2023/09/01 10:42:40;;;;;;;10.93;9.73;;;;;;;16.05;100.00;101072.59;6223520;23;20016;-80
2023/09/01 10:45:13;;;;;;;11.77;10.23;;;;;;;16.12;100.00;101073.72;6246147;23;20004;-80
2023/09/01 10:47:43;;;;;;;11.23;9.85;;;;;;;16.80;100.00;101179.28;6246404;23;20008;-80
2023/09/01 10:50:12;;;;;;;9.45;8.43;;;;;;;16.89;100.00;101191.56;6246349;23;20004;-79
2023/09/01 10:52:37;;;;;;;10.32;9.23;;;;;;;16.78;100.00;101157.72;6246158;23;20032;-80
2023/09/01 10:55:04;;;;;;;10.05;9.05;;;;;;;17.10;100.00;101190.72;6246782;23;20007;-80
2023/09/01 10:57:49;;;;;;;9.00;8.02;;;;;;;17.29;100.00;101195.19;6245796;23;20030;-82
2023/09/01 11:03:44;;;;;;;9.77;8.45;;;;;;;16.56;100.00;101038.75;6247446;22;20065;-82
2023/09/01 11:06:20;;;;;;;7.93;7.13;;;;;;;17.03;100.00;101101.72;6245980;23;20008;-80
2023/09/01 11:09:16;;;;;;;6.50;5.88;;;;;;;17.80;100.00;101199.50;6191962;22;20020;-80
2023/09/01 11:12:09;;;;;;;7.40;6.70;;;;;;;16.77;100.00;101024.84;6264545;22;20016;-80
2023/09/01 11:15:00;;;;;;;7.82;6.97;;;;;;;17.74;100.00;101196.50;6153405;23;20137;-80
2023/09/01 11:18:01;;;;;;;;;;;;;;;17.84;100.00;101190.47;6154130;23;20093;-81
2023/09/01 11:20:33;;;;;;;8.65;7.75;;;;;;;16.73;100.00;101041.75;6094653;23;19980;-78
2023/09/01 11:22:59;;;;;;;8.55;7.45;;;;;;;17.64;100.00;101190.38;6094545;23;20010;-79